Time;durP1;ratioP1;P1;durP2;ratioP2;P2;SDS_P1;SDS_P2;PMS_P1;PMS_P2;Temp;Humidity;BMP_temperature;BMP_pressure;BME280_temperature;BME280_humidity;BME280_pressure;Samples;Min_cycle;Max_cycle;Signal;HPM_P1;HPM_P2
2022/08/08 00:00:10;;;;;;;6.35;4.95;;;16.00;99.90;;;;;;5152812;27;20050;-50
2022/08/08 00:03:09;;;;;;;8.07;5.10;;;15.90;99.90;;;;;;5155339;27;20042;-50
2022/08/08 00:06:01;;;;;;;7.70;5.50;;;15.90;99.90;;;;;;5155192;27;20103;-53
2022/08/08 00:08:51;;;;;;;6.65;5.28;;;15.80;99.90;;;;;;5153215;27;20280;-50
2022/08/08 00:11:42;;;;;;;8.25;5.57;;;15.70;99.90;;;;;;5152602;27;20046;-50
2022/08/08 00:14:46;;;;;;;7.30;5.68;;;15.60;99.90;;;;;;5152874;27;20087;-49
2022/08/08 00:17:34;;;;;;;6.85;5.85;;;15.50;99.90;;;;;;5153091;27;20046;-53
2022/08/08 00:20:45;;;;;;;7.15;5.28;;;15.50;99.90;;;;;;5158126;27;20070;-51
2022/08/08 00:23:25;;;;;;;6.88;5.60;;;15.50;99.90;;;;;;5153164;27;20431;-50
2022/08/08 00:26:13;;;;;;;8.88;5.50;;;15.40;99.90;;;;;;5154285;27;20081;-49
2022/08/08 00:28:51;;;;;;;8.63;5.55;;;15.30;99.90;;;;;;5163700;27;20095;-51
2022/08/08 00:31:27;;;;;;;10.40;5.30;;;15.20;99.90;;;;;;5156753;27;20057;-52
2022/08/08 00:37:59;;;;;;;6.72;5.47;;;15.10;99.90;;;;;;5157151;27;20039;-51
2022/08/08 00:40:28;;;;;;;7.65;5.85;;;15.10;99.90;;;;;;5156570;27;20061;-52
2022/08/08 00:43:29;;;;;;;9.13;6.20;;;15.10;99.90;;;;;;5157335;27;20051;-52
2022/08/08 00:46:33;;;;;;;9.05;6.68;;;15.00;99.90;;;;;;5138674;27;20495;-50
2022/08/08 00:49:46;;;;;;;9.38;5.72;;;14.90;99.90;;;;;;5144879;27;20275;-52
2022/08/08 00:52:45;;;;;;;10.35;6.18;;;14.90;99.90;;;;;;5156555;27;20042;-51
2022/08/08 00:55:32;;;;;;;7.53;5.72;;;14.80;99.90;;;;;;5138576;27;20042;-50
2022/08/08 00:58:48;;;;;;;6.90;5.57;;;14.90;99.90;;;;;;5155554;27;20035;-54
2022/08/08 01:02:12;;;;;;;8.43;5.68;;;14.90;99.90;;;;;;5103173;27;20126;-50
2022/08/08 01:05:37;;;;;;;7.07;5.82;;;14.80;99.90;;;;;;5138037;27;20138;-50
2022/08/08 01:08:54;;;;;;;6.95;5.38;;;14.70;99.90;;;;;;5144177;27;20038;-50
2022/08/08 01:12:07;;;;;;;7.57;5.97;;;14.70;99.90;;;;;;5137759;27;20434;-49
2022/08/08 01:14:51;;;;;;;7.30;5.75;;;14.70;99.90;;;;;;5101149;27;20052;-49
2022/08/08 01:17:57;;;;;;;7.85;5.68;;;14.70;99.90;;;;;;5158422;27;20065;-51
2022/08/08 01:20:56;;;;;;;9.43;6.18;;;14.70;99.90;;;;;;5137715;27;20451;-51
2022/08/08 01:23:42;;;;;;;7.32;5.43;;;14.70;99.90;;;;;;5137730;27;20073;-51
2022/08/08 01:26:52;;;;;;;6.72;5.47;;;14.60;99.90;;;;;;5140612;27;20046;-53
2022/08/08 01:29:58;;;;;;;6.68;5.63;;;14.60;99.90;;;;;;5137712;27;20119;-51
2022/08/08 01:33:08;;;;;;;6.15;5.30;;;14.50;99.90;;;;;;5142802;27;20053;-49
2022/08/08 01:36:06;;;;;;;7.80;5.95;;;14.50;99.90;;;;;;5146783;27;20129;-49
2022/08/08 01:46:38;;;;;;;12.85;6.32;;;14.20;99.90;;;;;;5092966;28;20258;-48
2022/08/08 01:49:21;;;;;;;8.75;6.93;;;14.20;99.90;;;;;;5087236;28;20069;-52
2022/08/08 01:52:36;;;;;;;8.85;6.18;;;14.10;99.90;;;;;;5112829;28;20048;-49
2022/08/08 01:55:27;;;;;;;8.73;5.95;;;14.10;99.90;;;;;;5077602;28;20039;-51
2022/08/08 01:58:32;;;;;;;9.05;6.45;;;14.10;99.90;;;;;;5098050;28;20073;-49
2022/08/08 02:01:21;;;;;;;10.63;5.80;;;14.00;99.90;;;;;;5095880;28;20138;-49
2022/08/08 02:04:03;;;;;;;7.35;5.70;;;14.00;99.90;;;;;;5109290;28;20053;-49
2022/08/08 02:06:48;;;;;;;8.70;6.13;;;13.90;99.90;;;;;;5108018;28;20131;-49
2022/08/08 02:09:50;;;;;;;9.90;5.95;;;13.90;99.90;;;;;;5113116;28;20075;-51
2022/08/08 02:12:51;;;;;;;6.07;5.30;;;13.90;99.90;;;;;;5096963;28;20039;-49
2022/08/08 02:15:38;;;;;;;7.60;5.72;;;13.80;99.90;;;;;;5098896;28;20043;-51
2022/08/08 02:18:37;;;;;;;9.80;5.93;;;13.70;99.90;;;;;;5095885;28;20040;-50
2022/08/08 02:24:25;;;;;;;9.57;6.68;;;13.70;99.90;;;;;;5080385;28;20143;-53
2022/08/08 02:27:11;;;;;;;7.47;5.80;;;13.80;99.90;;;;;;5112539;28;20135;-52
2022/08/08 02:30:01;;;;;;;8.82;6.22;;;13.80;99.90;;;;;;5111642;28;20046;-51
2022/08/08 02:32:45;;;;;;;6.85;5.70;;;13.80;99.90;;;;;;5078330;28;20050;-49
2022/08/08 02:35:42;;;;;;;8.70;5.78;;;13.80;99.90;;;;;;5075134;28;20086;-52
2022/08/08 02:38:38;;;;;;;8.23;6.10;;;13.80;99.90;;;;;;5091902;28;20095;-49
2022/08/08 02:41:34;;;;;;;9.95;5.97;;;13.70;99.90;;;;;;5093502;28;20450;-49
2022/08/08 02:45:01;;;;;;;10.10;6.03;;;13.70;99.90;;;;;;5071814;28;20044;-49
2022/08/08 02:48:22;;;;;;;8.38;5.63;;;13.60;99.90;;;;;;5072298;28;20040;-49
2022/08/08 02:51:45;;;;;;;11.43;5.70;;;13.60;99.90;;;;;;5080597;28;20113;-49
2022/08/08 02:54:55;;;;;;;6.68;5.45;;;13.60;99.90;;;;;;5091542;28;20063;-51
2022/08/08 02:57:47;;;;;;;6.00;5.05;;;13.50;99.90;;;;;;5079852;28;20614;-48
2022/08/08 03:00:49;;;;;;;9.57;5.18;;;13.50;99.90;;;;;;5080839;28;20739;-51
2022/08/08 03:03:27;;;;;;;;;;;13.50;99.90;;;;;;5112187;28;20143;-48
2022/08/08 03:06:54;;;;;;;8.43;5.57;;;13.50;99.90;;;;;;5110130;28;19920;-50
2022/08/08 03:09:59;;;;;;;9.85;5.25;;;13.70;99.90;;;;;;5081500;28;20130;-51
2022/08/08 03:13:02;;;;;;;7.47;5.60;;;13.70;99.90;;;;;;5094648;28;20043;-48
2022/08/08 03:16:03;;;;;;;5.82;4.72;;;13.70;99.90;;;;;;5082896;28;20071;-50
2022/08/08 03:18:36;;;;;;;9.82;5.40;;;13.60;99.90;;;;;;5085941;28;20567;-48
2022/08/08 03:21:05;;;;;;;8.82;6.00;;;13.50;99.90;;;;;;5111253;28;20044;-49
2022/08/08 03:23:38;;;;;;;5.72;5.07;;;13.40;99.90;;;;;;5111610;28;20093;-48
2022/08/08 03:26:30;;;;;;;8.77;5.55;;;13.40;99.90;;;;;;5100220;28;20035;-49
2022/08/08 03:29:04;;;;;;;7.70;5.60;;;13.30;99.90;;;;;;5110334;28;20043;-48
2022/08/08 03:34:38;;;;;;;9.35;5.93;;;13.30;99.90;;;;;;5079140;28;20068;-52
2022/08/08 03:37:16;;;;;;;9.77;5.68;;;13.20;99.90;;;;;;5110803;28;20543;-51
2022/08/08 03:40:05;;;;;;;6.65;5.68;;;13.20;99.90;;;;;;5093763;28;20096;-49
2022/08/08 03:42:40;;;;;;;9.30;6.05;;;13.20;99.90;;;;;;5083893;28;20048;-49
2022/08/08 03:45:17;;;;;;;6.85;5.78;;;13.20;99.90;;;;;;5053870;28;20045;-49
2022/08/08 03:48:06;;;;;;;7.82;6.03;;;13.10;99.90;;;;;;5086702;28;20040;-51
2022/08/08 03:50:44;;;;;;;9.40;5.88;;;13.20;99.90;;;;;;5095583;28;20052;-48
2022/08/08 03:53:19;;;;;;;9.15;5.55;;;13.20;99.90;;;;;;5086597;28;20540;-48
2022/08/08 03:56:04;;;;;;;9.25;6.65;;;13.30;99.90;;;;;;5088892;28;20052;-50
2022/08/08 03:58:37;;;;;;;8.40;6.25;;;13.30;99.90;;;;;;5078632;28;20048;-53
2022/08/08 04:01:16;;;;;;;8.90;6.43;;;13.30;99.90;;;;;;5059342;28;20040;-54
2022/08/08 04:03:50;;;;;;;9.30;5.70;;;13.20;99.90;;;;;;5086740;28;20055;-50
2022/08/08 04:06:27;;;;;;;7.95;5.70;;;13.20;99.90;;;;;;5090238;28;20105;-50
2022/08/08 04:09:00;;;;;;;7.47;5.65;;;13.20;99.90;;;;;;5077116;28;20055;-51
2022/08/08 04:11:43;;;;;;;8.35;6.28;;;13.20;99.90;;;;;;5092925;28;20113;-54
2022/08/08 04:14:29;;;;;;;9.85;6.05;;;13.20;99.90;;;;;;5087355;28;20900;-49
2022/08/08 04:17:02;;;;;;;9.00;5.45;;;13.10;99.90;;;;;;5071836;28;20040;-49
2022/08/08 04:19:32;;;;;;;12.48;6.13;;;13.10;99.90;;;;;;5067450;28;20044;-50
2022/08/08 04:22:03;;;;;;;8.38;6.13;;;13.10;99.90;;;;;;5088242;28;20496;-49
2022/08/08 04:24:35;;;;;;;8.00;6.03;;;13.10;99.90;;;;;;5068192;28;20559;-51
2022/08/08 04:27:05;;;;;;;10.07;6.20;;;13.10;99.90;;;;;;5074221;28;20490;-50
2022/08/08 04:29:45;;;;;;;8.10;6.10;;;13.10;99.90;;;;;;5072167;28;20051;-52
2022/08/08 04:32:32;;;;;;;7.00;5.78;;;13.00;99.90;;;;;;5088453;28;20036;-50
2022/08/08 04:35:01;;;;;;;6.60;5.47;;;13.10;99.90;;;;;;5069602;28;20037;-49
2022/08/08 04:37:33;;;;;;;6.88;5.85;;;13.10;99.90;;;;;;5090168;28;20443;-52
2022/08/08 04:40:06;;;;;;;9.35;6.07;;;13.10;99.90;;;;;;5087565;28;20036;-49
2022/08/08 04:42:50;;;;;;;8.20;5.70;;;13.10;99.90;;;;;;5088274;28;20497;-49
2022/08/08 04:45:27;;;;;;;10.05;5.60;;;13.20;99.90;;;;;;5088391;28;20055;-51
2022/08/08 04:47:57;;;;;;;9.57;5.97;;;13.20;99.90;;;;;;5087410;28;20036;-50
2022/08/08 04:50:26;;;;;;;10.68;6.57;;;13.20;99.90;;;;;;5070863;28;20063;-50
2022/08/08 04:53:04;;;;;;;8.38;5.43;;;13.20;99.90;;;;;;5088224;28;20123;-52
2022/08/08 04:55:51;;;;;;;7.53;5.10;;;13.30;99.90;;;;;;5070631;28;20045;-49
2022/08/08 04:58:25;;;;;;;11.45;6.22;;;13.30;99.90;;;;;;5071606;28;20075;-51
2022/08/08 05:00:52;;;;;;;7.32;5.68;;;13.40;99.90;;;;;;5090473;28;20044;-51
2022/08/08 05:03:19;;;;;;;6.78;5.07;;;13.50;99.90;;;;;;5098835;28;20036;-50
2022/08/08 05:06:07;;;;;;;8.52;5.32;;;13.60;99.90;;;;;;5110303;28;20052;-49
2022/08/08 05:08:46;;;;;;;7.13;5.55;;;13.70;99.90;;;;;;5110104;28;20097;-49
2022/08/08 05:11:17;;;;;;;10.70;5.38;;;13.80;99.90;;;;;;5074551;28;20047;-52
2022/08/08 05:13:55;;;;;;;8.93;5.10;;;13.90;99.90;;;;;;5110722;28;20055;-49
2022/08/08 05:16:31;;;;;;;11.55;5.47;;;13.90;99.90;;;;;;5096858;28;20051;-50
2022/08/08 05:19:20;;;;;;;6.75;5.00;;;14.00;99.90;;;;;;5087185;28;20481;-51
2022/08/08 05:22:09;;;;;;;9.57;6.17;;;14.00;99.90;;;;;;5104531;28;20024;-50
2022/08/08 05:24:40;;;;;;;8.18;5.93;;;14.00;99.90;;;;;;5096662;28;20047;-52
2022/08/08 05:27:14;;;;;;;16.38;6.28;;;14.10;99.90;;;;;;5113697;28;20051;-49
2022/08/08 05:29:41;;;;;;;9.30;6.50;;;14.10;99.90;;;;;;5089024;28;20461;-50
2022/08/08 05:32:08;;;;;;;8.85;6.32;;;14.00;99.90;;;;;;5087969;28;20500;-50
2022/08/08 05:34:47;;;;;;;8.98;7.07;;;14.00;99.90;;;;;;5113701;28;20036;-49
2022/08/08 05:37:22;;;;;;;;;;;14.00;99.90;;;;;;5090369;28;20036;-50
2022/08/08 05:40:06;;;;;;;9.25;6.28;;;14.00;99.90;;;;;;5104156;28;19928;-51
2022/08/08 05:42:43;;;;;;;8.80;6.30;;;13.90;99.90;;;;;;5096506;28;20191;-53
2022/08/08 05:45:12;;;;;;;8.82;6.55;;;13.90;99.90;;;;;;5082006;28;20037;-50
2022/08/08 05:48:00;;;;;;;11.05;6.18;;;14.00;99.90;;;;;;5084283;28;20559;-50
2022/08/08 05:50:35;;;;;;;11.73;6.13;;;14.00;99.90;;;;;;5094856;28;20499;-50
2022/08/08 05:53:03;;;;;;;8.75;6.75;;;14.20;99.90;;;;;;5096199;28;20046;-50
2022/08/08 05:55:51;;;;;;;9.15;7.03;;;14.30;99.90;;;;;;5100520;28;20040;-51
2022/08/08 05:58:41;;;;;;;10.35;6.93;;;14.50;99.90;;;;;;5114232;28;20042;-52
2022/08/08 06:01:28;;;;;;;9.02;6.55;;;14.60;99.90;;;;;;5092640;28;20548;-51
2022/08/08 06:04:21;;;;;;;10.35;7.00;;;14.70;99.90;;;;;;5076664;28;20415;-50
2022/08/08 06:07:02;;;;;;;10.82;7.25;;;14.80;99.90;;;;;;5092632;28;20097;-50
2022/08/08 06:09:36;;;;;;;10.48;7.40;;;14.90;99.90;;;;;;5092170;28;20527;-49
2022/08/08 06:12:23;;;;;;;9.23;6.45;;;14.90;99.90;;;;;;5095631;28;20036;-50
2022/08/08 06:15:00;;;;;;;8.82;7.15;;;15.00;99.90;;;;;;5112473;28;20039;-51
2022/08/08 06:17:39;;;;;;;11.32;7.25;;;15.10;99.90;;;;;;5095610;28;20036;-50
2022/08/08 06:20:26;;;;;;;12.35;6.63;;;15.20;99.90;;;;;;5095472;28;20055;-53
2022/08/08 06:22:53;;;;;;;12.93;7.28;;;15.30;99.90;;;;;;5110457;28;20044;-50
2022/08/08 06:25:30;;;;;;;8.77;6.80;;;15.40;99.90;;;;;;5111183;28;20047;-50
2022/08/08 06:28:18;;;;;;;;;;;15.50;99.90;;;;;;5101121;28;20036;-52
2022/08/08 06:30:58;;;;;;;14.32;6.78;;;15.60;99.90;;;;;;5110122;28;19919;-50
2022/08/08 06:33:58;;;;;;;7.55;6.40;;;15.60;99.90;;;;;;5095581;28;20104;-54
2022/08/08 06:36:49;;;;;;;8.52;6.22;;;15.60;99.90;;;;;;5079488;28;20105;-50
2022/08/08 06:39:23;;;;;;;10.57;6.90;;;15.60;99.90;;;;;;5111985;28;20130;-51
2022/08/08 06:41:56;;;;;;;8.57;6.25;;;15.60;99.90;;;;;;5094865;28;20039;-50
2022/08/08 06:44:28;;;;;;;8.35;5.80;;;15.60;99.90;;;;;;5081232;28;20042;-53
2022/08/08 06:46:57;;;;;;;6.90;5.57;;;15.60;99.90;;;;;;5086844;28;20097;-51
2022/08/08 06:49:26;;;;;;;7.15;6.30;;;15.70;99.90;;;;;;5094951;28;20097;-50
2022/08/08 06:52:15;;;;;;;10.52;6.63;;;15.80;99.90;;;;;;5105804;28;20439;-49
2022/08/08 06:54:44;;;;;;;13.90;6.50;;;15.70;99.90;;;;;;5079202;28;20059;-53
2022/08/08 06:57:15;;;;;;;9.02;6.30;;;15.80;99.90;;;;;;5054864;28;20412;-50
2022/08/08 06:59:42;;;;;;;11.82;6.20;;;15.90;99.90;;;;;;5071243;28;20046;-50
2022/08/08 07:02:31;;;;;;;7.60;5.60;;;15.90;99.90;;;;;;5073917;28;20397;-49
2022/08/08 07:05:06;;;;;;;9.73;5.75;;;16.00;99.90;;;;;;5108642;28;20043;-49
2022/08/08 07:08:16;;;;;;;10.48;5.72;;;16.10;99.90;;;;;;5094803;28;20134;-51
2022/08/08 07:10:49;;;;;;;6.70;5.32;;;16.20;99.90;;;;;;5099171;28;20156;-52
2022/08/08 07:13:18;;;;;;;8.30;5.72;;;16.10;99.90;;;;;;5091242;28;20071;-51
2022/08/08 07:15:52;;;;;;;10.75;5.78;;;16.30;99.90;;;;;;5090924;28;20093;-53
2022/08/08 07:19:10;;;;;;;7.57;6.20;;;16.30;99.90;;;;;;5076595;28;20104;-50
2022/08/08 07:21:54;;;;;;;9.23;6.20;;;16.20;99.90;;;;;;5084004;28;20097;-49
2022/08/08 07:24:33;;;;;;;8.35;6.53;;;16.10;99.90;;;;;;5094391;28;20051;-50
2022/08/08 07:27:05;;;;;;;9.32;6.88;;;16.10;99.90;;;;;;5104458;28;20060;-53
2022/08/08 07:29:39;;;;;;;7.97;6.45;;;16.00;99.90;;;;;;5085836;28;20097;-49
2022/08/08 07:32:26;;;;;;;10.00;6.63;;;16.00;99.90;;;;;;5111402;28;20046;-50
2022/08/08 07:34:56;;;;;;;8.07;5.93;;;16.00;99.90;;;;;;5093781;28;20487;-49
2022/08/08 07:37:35;;;;;;;11.10;7.25;;;16.00;99.90;;;;;;5087868;28;20043;-50
2022/08/08 07:44:30;;;;;;;11.23;6.93;;;16.10;99.90;;;;;;5073803;28;20492;-50
2022/08/08 07:47:07;;;;;;;9.13;6.70;;;16.30;99.90;;;;;;5089919;28;20063;-50
2022/08/08 07:49:36;;;;;;;11.98;7.38;;;16.50;99.90;;;;;;5085833;28;20138;-50
2022/08/08 07:52:12;;;;;;;11.48;7.20;;;16.60;99.90;;;;;;5090146;28;20051;-51
2022/08/08 07:55:19;;;;;;;8.85;6.75;;;16.90;99.90;;;;;;5067907;28;20036;-47
2022/08/08 07:58:05;;;;;;;12.97;6.37;;;17.10;99.90;;;;;;5070710;28;20051;-49
2022/08/08 08:00:46;;;;;;;8.98;6.45;;;17.30;99.90;;;;;;5073111;28;20515;-48
2022/08/08 08:03:31;;;;;;;8.13;6.25;;;17.50;99.90;;;;;;5073652;28;20093;-48
2022/08/08 08:06:12;;;;;;;9.30;5.95;;;17.60;99.90;;;;;;5078232;28;20039;-49
2022/08/08 08:08:59;;;;;;;12.93;6.63;;;17.70;99.90;;;;;;5086437;28;20048;-48
2022/08/08 08:11:32;;;;;;;10.75;5.90;;;17.70;99.90;;;;;;5090018;28;20055;-47
2022/08/08 08:14:29;;;;;;;11.13;6.50;;;17.90;99.90;;;;;;5087415;28;20047;-48
2022/08/08 08:16:58;;;;;;;8.38;6.53;;;18.00;99.90;;;;;;5081598;28;20044;-48
2022/08/08 08:19:37;;;;;;;7.78;5.93;;;18.10;99.90;;;;;;5089950;28;20135;-51
2022/08/08 08:22:14;;;;;;;11.13;6.47;;;18.50;99.90;;;;;;5089951;28;20094;-50
2022/08/08 08:24:57;;;;;;;9.60;6.22;;;18.80;99.90;;;;;;5079931;28;20109;-49
2022/08/08 08:27:33;;;;;;;7.97;6.15;;;18.80;99.90;;;;;;5090061;28;20054;-48
2022/08/08 08:30:00;;;;;;;9.38;5.38;;;18.70;99.90;;;;;;5089616;28;20529;-50
2022/08/08 08:32:28;;;;;;;7.35;5.85;;;18.60;99.90;;;;;;5088052;28;20040;-49
2022/08/08 08:35:06;;;;;;;9.18;6.20;;;18.70;99.90;;;;;;5072254;28;20563;-48
2022/08/08 08:37:34;;;;;;;8.85;5.15;;;18.70;99.90;;;;;;5073551;28;20135;-49
2022/08/08 08:40:23;;;;;;;8.02;5.70;;;18.70;99.90;;;;;;5072559;28;20552;-48
2022/08/08 08:42:53;;;;;;;7.82;5.63;;;18.70;99.90;;;;;;5078572;28;20050;-48
2022/08/08 08:45:22;;;;;;;7.13;5.68;;;18.90;99.90;;;;;;5083446;28;20075;-48
2022/08/08 08:47:55;;;;;;;9.25;5.55;;;18.90;99.90;;;;;;5109846;28;20046;-48
2022/08/08 08:50:27;;;;;;;8.10;5.00;;;19.00;99.90;;;;;;5083910;28;20044;-48
2022/08/08 08:53:07;;;;;;;6.90;5.13;;;19.10;99.90;;;;;;5085270;28;20048;-50
2022/08/08 08:56:00;;;;;;;;;;;19.40;99.90;;;;;;5111644;28;20063;-48
2022/08/08 08:58:34;;;;;;;6.82;4.70;;;19.70;99.90;;;;;;5091208;28;19920;-52
2022/08/08 09:01:05;;;;;;;9.68;5.05;;;20.00;99.90;;;;;;5085020;28;20471;-48
2022/08/08 09:03:49;;;;;;;8.45;5.10;;;20.40;99.90;;;;;;5093614;28;20044;-50
2022/08/08 09:06:26;;;;;;;13.48;5.50;;;20.80;99.90;;;;;;5092944;28;20105;-49
2022/08/08 09:09:04;;;;;;;7.85;4.53;;;21.00;99.90;;;;;;5100893;28;20056;-48
2022/08/08 09:11:46;;;;;;;4.57;3.67;;;21.20;99.90;;;;;;5110134;28;20075;-49
2022/08/08 09:14:30;;;;;;;6.53;4.43;;;21.40;99.90;;;;;;5089732;28;20170;-49
2022/08/08 09:17:01;;;;;;;6.78;4.22;;;21.30;99.90;;;;;;5084761;28;20036;-50
2022/08/08 09:19:37;;;;;;;4.90;4.00;;;21.20;99.90;;;;;;5093336;28;20044;-49
2022/08/08 09:22:25;;;;;;;6.80;4.78;;;21.00;99.90;;;;;;5093470;28;20043;-48
2022/08/08 09:24:55;;;;;;;4.95;4.32;;;21.00;99.90;;;;;;5085020;28;20107;-49
2022/08/08 09:27:25;;;;;;;7.80;4.70;;;21.00;99.90;;;;;;5084850;28;20044;-50
2022/08/08 09:30:13;;;;;;;6.30;5.00;;;20.90;99.90;;;;;;5092912;28;20036;-50
2022/08/08 09:32:55;;;;;;;6.57;4.95;;;20.70;99.90;;;;;;5093155;28;20415;-48
2022/08/08 09:35:45;;;;;;;;;;;20.80;99.90;;;;;;5098252;28;20039;-52
2022/08/08 09:38:35;;;;;;;6.07;4.40;;;21.10;99.90;;;;;;5056052;28;19974;-52
2022/08/08 09:41:36;;;;;;;5.20;4.38;;;21.50;99.90;;;;;;5055377;28;20097;-49
2022/08/08 09:44:28;;;;;;;8.43;5.50;;;21.80;99.90;;;;;;5093681;28;20442;-49
2022/08/08 09:47:06;;;;;;;5.72;4.22;;;22.10;99.90;;;;;;5094271;28;20489;-49
2022/08/08 09:49:57;;;;;;;6.95;4.80;;;22.10;99.90;;;;;;5092799;28;20136;-50
2022/08/08 09:52:33;;;;;;;6.72;4.50;;;22.20;99.90;;;;;;5088815;28;20032;-50
2022/08/08 09:55:21;;;;;;;8.63;4.38;;;22.30;99.90;;;;;;5073808;28;20044;-50
2022/08/08 09:58:15;;;;;;;11.98;4.75;;;22.40;99.90;;;;;;5076822;28;20451;-49
2022/08/08 10:00:58;;;;;;;7.15;4.03;;;22.30;99.90;;;;;;5093615;28;20044;-48
2022/08/08 10:03:29;;;;;;;7.07;4.82;;;22.10;99.90;;;;;;5093982;28;20504;-48
2022/08/08 10:05:58;;;;;;;5.75;4.47;;;22.00;99.90;;;;;;5094030;28;20044;-52
2022/08/08 10:08:25;;;;;;;7.95;4.60;;;21.90;99.90;;;;;;5091745;28;20043;-48
2022/08/08 10:11:00;;;;;;;6.55;5.07;;;21.80;99.90;;;;;;5093574;28;20494;-49
2022/08/08 10:13:29;;;;;;;7.13;4.95;;;21.80;99.90;;;;;;5093715;28;20079;-49
2022/08/08 10:16:02;;;;;;;8.70;5.03;;;21.80;99.90;;;;;;5092529;28;20051;-48
2022/08/08 10:18:34;;;;;;;10.02;4.93;;;21.60;99.90;;;;;;5093458;28;20044;-48
2022/08/08 10:21:09;;;;;;;8.23;5.40;;;21.70;99.90;;;;;;5093128;28;20329;-48
2022/08/08 10:23:52;;;;;;;5.82;4.68;;;21.70;99.90;;;;;;5093328;28;20048;-48
2022/08/08 10:26:32;;;;;;;4.90;4.40;;;21.80;99.90;;;;;;5090047;28;20400;-49
2022/08/08 10:29:31;;;;;;;4.95;3.80;;;21.80;99.90;;;;;;5073155;28;20049;-49
2022/08/08 10:35:17;;;;;;;;;;;22.00;99.90;;;;;;5070360;28;20447;-48
2022/08/08 10:38:05;;;;;;;8.95;4.30;;;22.40;99.90;;;;;;5075035;28;19920;-48
2022/08/08 10:40:37;;;;;;;4.90;4.03;;;22.60;99.90;;;;;;5092804;28;20036;-49
2022/08/08 10:43:05;;;;;;;5.13;4.18;;;22.30;99.90;;;;;;5086920;28;20409;-52
2022/08/08 10:45:46;;;;;;;12.13;4.55;;;22.10;99.90;;;;;;5093044;28;20044;-49
2022/08/08 10:48:34;;;;;;;6.25;4.40;;;21.80;99.90;;;;;;5093091;28;20055;-49
2022/08/08 10:51:22;;;;;;;10.55;4.60;;;21.80;99.90;;;;;;5085472;28;20048;-48
2022/08/08 10:53:53;;;;;;;4.97;3.72;;;21.70;99.90;;;;;;5092861;28;20048;-48
2022/08/08 10:56:25;;;;;;;6.15;4.03;;;21.80;99.90;;;;;;5092737;28;20519;-49
2022/08/08 10:58:59;;;;;;;5.07;3.90;;;22.00;99.90;;;;;;5088102;28;20132;-49
2022/08/08 11:01:30;;;;;;;5.85;4.05;;;22.30;99.90;;;;;;5092248;28;20047;-49
2022/08/08 11:04:00;;;;;;;5.15;4.00;;;22.60;99.90;;;;;;5092885;28;20115;-48
2022/08/08 11:06:34;;;;;;;4.18;3.50;;;22.80;99.90;;;;;;5091220;28;20485;-49
2022/08/08 11:09:04;;;;;;;4.90;3.75;;;22.90;99.90;;;;;;5091730;28;20058;-49
2022/08/08 11:11:50;;;;;;;4.80;3.95;;;22.80;99.90;;;;;;5091432;28;20048;-49
2022/08/08 11:14:51;;;;;;;6.25;4.18;;;22.80;99.90;;;;;;5092707;28;20082;-49
2022/08/08 11:17:22;;;;;;;4.25;3.70;;;22.80;99.90;;;;;;5087012;28;20047;-48
2022/08/08 11:20:11;;;;;;;5.13;3.55;;;22.80;99.90;;;;;;5091965;28;20040;-49
2022/08/08 11:22:40;;;;;;;8.07;3.92;;;22.80;99.90;;;;;;5092514;28;20500;-49
2022/08/08 11:25:10;;;;;;;4.18;3.65;;;22.80;99.90;;;;;;5092436;28;20044;-50
2022/08/08 11:27:41;;;;;;;7.22;3.90;;;22.80;99.90;;;;;;5085041;28;20420;-48
2022/08/08 11:30:13;;;;;;;8.10;3.70;;;22.80;99.90;;;;;;5084135;28;20036;-49
2022/08/08 11:32:53;;;;;;;5.50;3.50;;;22.90;99.90;;;;;;5092017;28;20541;-51
2022/08/08 11:35:21;;;;;;;3.90;3.60;;;23.10;99.90;;;;;;5092169;28;20492;-50
2022/08/08 11:38:03;;;;;;;4.40;3.60;;;23.20;99.90;;;;;;5091035;28;20048;-50
2022/08/08 11:40:51;;;;;;;9.00;4.68;;;23.30;99.90;;;;;;5091809;28;20040;-48
2022/08/08 11:43:20;;;;;;;4.60;3.28;;;23.50;99.90;;;;;;5092038;28;20028;-49
2022/08/08 11:45:51;;;;;;;3.63;3.00;;;23.60;99.90;;;;;;5090851;28;20064;-49
2022/08/08 11:48:38;;;;;;;4.32;3.47;;;23.80;99.90;;;;;;5092104;28;20136;-51
2022/08/08 11:51:05;;;;;;;5.45;3.00;;;23.90;99.90;;;;;;5091775;28;20047;-49
2022/08/08 11:53:52;;;;;;;3.35;3.00;;;24.00;99.90;;;;;;5090310;28;20078;-50
2022/08/08 11:56:32;;;;;;;5.90;2.75;;;24.00;99.90;;;;;;5091719;28;20090;-50
2022/08/08 11:59:08;;;;;;;6.93;3.20;;;24.00;99.90;;;;;;5091497;28;20044;-49
2022/08/08 12:01:35;;;;;;;4.30;2.85;;;24.40;99.90;;;;;;5088375;28;20084;-53
2022/08/08 12:04:04;;;;;;;5.13;2.97;;;24.80;99.90;;;;;;5090609;28;20447;-49
2022/08/08 12:06:32;;;;;;;3.45;2.85;;;25.10;99.90;;;;;;5091344;28;20047;-50
2022/08/08 12:09:08;;;;;;;;;;;25.40;99.90;;;;;;5091844;28;20052;-51
2022/08/08 12:11:43;;;;;;;3.05;2.83;;;25.50;99.90;;;;;;5088608;28;19977;-49
2022/08/08 12:14:22;;;;;;;3.10;2.70;;;25.60;99.90;;;;;;5071475;28;20047;-51
2022/08/08 12:16:52;;;;;;;3.67;2.80;;;25.70;99.90;;;;;;5071392;28;20072;-49
2022/08/08 12:19:20;;;;;;;3.00;2.30;;;25.80;99.90;;;;;;5071199;28;20032;-49
2022/08/08 12:22:07;;;;;;;2.90;2.60;;;25.80;99.90;;;;;;5090107;28;20055;-50
2022/08/08 12:24:44;;;;;;;2.85;2.65;;;25.90;99.90;;;;;;5091474;28;20048;-49
2022/08/08 12:27:19;;;;;;;2.97;2.78;;;25.80;99.90;;;;;;5091569;28;20073;-49
2022/08/08 12:29:57;;;;;;;3.83;2.78;;;25.80;99.90;;;;;;5083196;28;20048;-49
2022/08/08 12:32:25;;;;;;;3.13;2.83;;;25.80;99.90;;;;;;5091296;28;20055;-49
2022/08/08 12:34:56;;;;;;;2.90;2.70;;;25.70;99.90;;;;;;5091531;28;20048;-50
2022/08/08 12:37:38;;;;;;;4.13;3.28;;;25.40;99.90;;;;;;5090726;28;20074;-50
2022/08/08 12:40:17;;;;;;;9.82;2.88;;;25.20;99.90;;;;;;5090668;28;20044;-51
2022/08/08 12:42:51;;;;;;;3.80;2.92;;;25.30;99.90;;;;;;5091440;28;20460;-50
2022/08/08 12:45:18;;;;;;;3.38;2.75;;;25.30;99.90;;;;;;5091215;28;20047;-50
2022/08/08 12:48:07;;;;;;;3.90;2.72;;;25.00;99.90;;;;;;5090022;28;20079;-52
2022/08/08 12:50:46;;;;;;;4.10;2.85;;;24.50;99.90;;;;;;5090654;28;20048;-49
2022/08/08 12:53:22;;;;;;;4.68;2.90;;;24.20;99.90;;;;;;5091279;28;20044;-50
2022/08/08 12:56:02;;;;;;;3.95;3.10;;;23.90;99.90;;;;;;5091164;28;20048;-50
2022/08/08 12:58:52;;;;;;;6.60;3.03;;;23.80;99.90;;;;;;5089261;28;20119;-50
2022/08/08 13:01:35;;;;;;;3.95;3.30;;;23.80;99.90;;;;;;5090449;28;20074;-49
2022/08/08 13:04:17;;;;;;;3.15;2.63;;;23.90;99.90;;;;;;5091094;28;20107;-51
2022/08/08 13:06:52;;;;;;;3.63;2.70;;;24.40;99.90;;;;;;5089207;28;20052;-49
2022/08/08 13:09:47;;;;;;;4.43;2.67;;;24.70;99.90;;;;;;5090945;28;20060;-50
2022/08/08 13:12:39;;;;;;;2.85;2.50;;;24.80;99.90;;;;;;5091168;28;20055;-49
2022/08/08 13:15:15;;;;;;;2.95;2.42;;;24.30;99.90;;;;;;5085845;28;20054;-51
2022/08/08 13:17:46;;;;;;;3.28;2.60;;;24.50;99.90;;;;;;5090908;28;20047;-50
2022/08/08 13:20:43;;;;;;;3.03;2.67;;;24.70;99.90;;;;;;5090646;28;20504;-49
2022/08/08 13:23:20;;;;;;;2.70;2.50;;;24.90;99.90;;;;;;5088661;28;20431;-50
2022/08/08 13:26:08;;;;;;;2.78;2.58;;;25.00;99.90;;;;;;5090939;28;20056;-49
2022/08/08 13:28:44;;;;;;;8.20;3.22;;;25.20;99.90;;;;;;5090747;28;20059;-49
2022/08/08 13:31:15;;;;;;;2.63;2.33;;;25.40;99.90;;;;;;5087365;28;20319;-49
2022/08/08 13:33:46;;;;;;;6.45;2.85;;;25.40;99.90;;;;;;5087882;28;20097;-49
2022/08/08 13:36:18;;;;;;;3.00;2.35;;;25.40;99.90;;;;;;5074214;28;20102;-49
2022/08/08 13:38:52;;;;;;;4.03;2.30;;;25.40;99.90;;;;;;5092319;22;20036;-49
2022/08/08 13:41:20;;;;;;;2.45;2.25;;;25.50;99.90;;;;;;5100099;28;20500;-49
2022/08/08 13:43:48;;;;;;;6.03;2.42;;;25.50;99.50;;;;;;5102935;28;20118;-50
2022/08/08 13:46:17;;;;;;;4.22;2.05;;;25.50;99.90;;;;;;5110426;28;20142;-50
2022/08/08 13:48:54;;;;;;;2.38;2.17;;;25.30;99.20;;;;;;5113170;28;20043;-50
2022/08/08 13:51:38;;;;;;;2.83;2.63;;;25.60;99.90;;;;;;5090385;28;20093;-50
2022/08/08 13:54:21;;;;;;;2.97;2.33;;;25.80;98.90;;;;;;5056114;28;20044;-50
2022/08/08 13:57:05;;;;;;;2.42;2.30;;;25.90;99.90;;;;;;5073871;28;20040;-50
2022/08/08 13:59:41;;;;;;;8.18;2.58;;;25.80;98.70;;;;;;5089611;28;20493;-49
2022/08/08 14:02:17;;;;;;;;;;;25.70;99.90;;;;;;5073891;28;20448;-50
2022/08/08 14:05:00;;;;;;;3.03;2.72;;;25.80;99.90;;;;;;5073995;28;19920;-50
2022/08/08 14:07:48;;;;;;;2.30;2.10;;;26.00;99.20;;;;;;5082666;28;20052;-50
2022/08/08 14:10:21;;;;;;;2.60;2.40;;;26.20;98.90;;;;;;5093397;28;20054;-50
2022/08/08 14:13:08;;;;;;;5.22;2.20;;;26.30;98.40;;;;;;5093858;28;20052;-50
2022/08/08 14:16:05;;;;;;;9.40;2.28;;;26.40;98.40;;;;;;5074947;28;20094;-49
2022/08/08 14:18:52;;;;;;;2.50;2.30;;;26.40;98.20;;;;;;5093668;28;20051;-50
2022/08/08 14:21:22;;;;;;;4.78;1.92;;;26.30;98.80;;;;;;5093435;28;20044;-50
2022/08/08 14:23:50;;;;;;;2.63;2.33;;;26.20;97.70;;;;;;5086136;28;20044;-50
2022/08/08 14:26:43;;;;;;;2.60;2.40;;;26.30;97.30;;;;;;5093371;28;20040;-51
2022/08/08 14:29:21;;;;;;;2.70;2.40;;;26.20;97.50;;;;;;5092726;28;20123;-50